sensor_id;sensor_type;location;lat;lon;timestamp;temperature;humidity
5631;DHT22;2837;50.990;7.124;2023-02-10T06:02:15;3.40;99.90
5631;DHT22;2837;50.990;7.124;2023-02-10T06:04:41;3.50;99.90
5631;DHT22;2837;50.990;7.124;2023-02-10T06:07:06;3.50;99.90
5631;DHT22;2837;50.990;7.124;2023-02-10T06:09:32;3.40;99.90
5631;DHT22;2837;50.990;7.124;2023-02-10T06:11:58;3.40;99.90
5631;DHT22;2837;50.990;7.124;2023-02-10T06:14:23;3.40;99.90
5631;DHT22;2837;50.990;7.124;2023-02-10T06:16:49;3.40;99.90
5631;DHT22;2837;50.990;7.124;2023-02-10T06:19:14;3.40;99.90
5631;DHT22;2837;50.990;7.124;2023-02-10T06:21:40;3.40;99.90
5631;DHT22;2837;50.990;7.124;2023-02-10T06:24:05;3.50;99.90
5631;DHT22;2837;50.990;7.124;2023-02-10T06:26:31;3.40;99.90
5631;DHT22;2837;50.990;7.124;2023-02-10T06:28:57;3.40;99.90
5631;DHT22;2837;50.990;7.124;2023-02-10T06:31:22;3.30;99.90
5631;DHT22;2837;50.990;7.124;2023-02-10T06:33:49;3.30;99.90
5631;DHT22;2837;50.990;7.124;2023-02-10T06:36:14;3.30;99.90
5631;DHT22;2837;50.990;7.124;2023-02-10T06:38:40;3.30;99.90
5631;DHT22;2837;50.990;7.124;2023-02-10T06:41:06;3.30;99.90
5631;DHT22;2837;50.990;7.124;2023-02-10T06:43:32;3.20;99.90
5631;DHT22;2837;50.990;7.124;2023-02-10T06:45:57;3.30;99.90
5631;DHT22;2837;50.990;7.124;2023-02-10T06:48:23;3.20;99.90
5631;DHT22;2837;50.990;7.124;2023-02-10T06:50:49;3.30;99.90
5631;DHT22;2837;50.990;7.124;2023-02-10T06:53:14;3.30;99.90
5631;DHT22;2837;50.990;7.124;2023-02-10T06:55:40;3.40;99.90
5631;DHT22;2837;50.990;7.124;2023-02-10T06:58:06;3.30;99.90
5631;DHT22;2837;50.990;7.124;2023-02-10T07:00:31;3.30;99.90
5631;DHT22;2837;50.990;7.124;2023-02-10T07:02:58;3.30;99.90
5631;DHT22;2837;50.990;7.124;2023-02-10T07:05:23;3.20;99.90
5631;DHT22;2837;50.990;7.124;2023-02-10T07:07:49;3.30;99.90
5631;DHT22;2837;50.990;7.124;2023-02-10T07:10:19;3.30;99.90
5631;DHT22;2837;50.990;7.124;2023-02-10T07:12:45;3.30;99.90
5631;DHT22;2837;50.990;7.124;2023-02-10T07:15:13;3.40;99.90
5631;DHT22;2837;50.990;7.124;2023-02-10T07:17:38;3.30;99.90
5631;DHT22;2837;50.990;7.124;2023-02-10T07:20:05;3.40;99.90
5631;DHT22;2837;50.990;7.124;2023-02-10T07:22:31;3.40;99.90
5631;DHT22;2837;50.990;7.124;2023-02-10T07:24:56;3.40;99.90
5631;DHT22;2837;50.990;7.124;2023-02-10T07:27:22;3.50;99.90
5631;DHT22;2837;50.990;7.124;2023-02-10T07:29:48;3.60;99.90
5631;DHT22;2837;50.990;7.124;2023-02-10T07:32:14;3.60;99.90
5631;DHT22;2837;50.990;7.124;2023-02-10T07:34:40;3.70;99.90
5631;DHT22;2837;50.990;7.124;2023-02-10T07:37:06;3.70;99.90
5631;DHT22;2837;50.990;7.124;2023-02-10T07:39:32;3.80;99.90
5631;DHT22;2837;50.990;7.124;2023-02-10T07:41:58;3.80;99.90
5631;DHT22;2837;50.990;7.124;2023-02-10T07:44:23;3.80;99.90
5631;DHT22;2837;50.990;7.124;2023-02-10T07:46:51;3.80;99.90
5631;DHT22;2837;50.990;7.124;2023-02-10T07:49:17;3.80;99.90
5631;DHT22;2837;50.990;7.124;2023-02-10T07:51:43;3.80;99.90
5631;DHT22;2837;50.990;7.124;2023-02-10T07:54:09;3.90;99.90
5631;DHT22;2837;50.990;7.124;2023-02-10T07:56:35;3.90;99.90
5631;DHT22;2837;50.990;7.124;2023-02-10T07:59:00;4.00;99.90
5631;DHT22;2837;50.990;7.124;2023-02-10T08:01:26;4.10;99.90
5631;DHT22;2837;50.990;7.124;2023-02-10T08:03:52;4.20;99.90
5631;DHT22;2837;50.990;7.124;2023-02-10T08:06:22;4.30;99.90
5631;DHT22;2837;50.990;7.124;2023-02-10T08:08:48;4.20;99.90
5631;DHT22;2837;50.990;7.124;2023-02-10T08:11:14;4.20;99.90
5631;DHT22;2837;50.990;7.124;2023-02-10T08:13:40;4.20;99.90
5631;DHT22;2837;50.990;7.124;2023-02-10T08:16:06;4.30;99.90
5631;DHT22;2837;50.990;7.124;2023-02-10T08:18:34;4.30;99.90
5631;DHT22;2837;50.990;7.124;2023-02-10T08:21:00;4.30;99.90
5631;DHT22;2837;50.990;7.124;2023-02-10T08:23:26;4.40;99.90
5631;DHT22;2837;50.990;7.124;2023-02-10T08:25:51;4.40;99.90
5631;DHT22;2837;50.990;7.124;2023-02-10T08:28:18;4.40;99.90
5631;DHT22;2837;50.990;7.124;2023-02-10T08:30:44;4.30;99.90
5631;DHT22;2837;50.990;7.124;2023-02-10T08:33:09;4.30;99.90
5631;DHT22;2837;50.990;7.124;2023-02-10T08:35:39;4.40;99.90
5631;DHT22;2837;50.990;7.124;2023-02-10T08:38:05;4.50;99.90
5631;DHT22;2837;50.990;7.124;2023-02-10T08:40:32;4.50;99.90
5631;DHT22;2837;50.990;7.124;2023-02-10T08:42:57;4.60;99.90
5631;DHT22;2837;50.990;7.124;2023-02-10T08:45:23;4.70;99.90
5631;DHT22;2837;50.990;7.124;2023-02-10T08:47:48;4.70;99.90
5631;DHT22;2837;50.990;7.124;2023-02-10T08:50:14;4.80;99.90
5631;DHT22;2837;50.990;7.124;2023-02-10T08:52:40;4.90;99.90
5631;DHT22;2837;50.990;7.124;2023-02-10T08:55:06;4.90;99.90
5631;DHT22;2837;50.990;7.124;2023-02-10T08:57:33;5.00;99.90
5631;DHT22;2837;50.990;7.124;2023-02-10T08:59:59;5.10;99.90
5631;DHT22;2837;50.990;7.124;2023-02-10T09:02:25;5.10;99.90
5631;DHT22;2837;50.990;7.124;2023-02-10T09:04:50;5.10;99.90
5631;DHT22;2837;50.990;7.124;2023-02-10T09:07:16;5.30;99.90
5631;DHT22;2837;50.990;7.124;2023-02-10T09:09:42;5.30;99.90
5631;DHT22;2837;50.990;7.124;2023-02-10T09:12:09;5.30;99.90
5631;DHT22;2837;50.990;7.124;2023-02-10T09:14:37;5.30;99.90
5631;DHT22;2837;50.990;7.124;2023-02-10T09:17:03;5.40;99.90
5631;DHT22;2837;50.990;7.124;2023-02-10T09:19:28;5.40;99.90
5631;DHT22;2837;50.990;7.124;2023-02-10T09:21:54;5.40;99.90
5631;DHT22;2837;50.990;7.124;2023-02-10T09:24:21;5.40;99.90
5631;DHT22;2837;50.990;7.124;2023-02-10T09:26:47;5.40;99.90
5631;DHT22;2837;50.990;7.124;2023-02-10T09:29:13;5.50;99.90
5631;DHT22;2837;50.990;7.124;2023-02-10T09:31:38;5.60;99.90
5631;DHT22;2837;50.990;7.124;2023-02-10T09:34:04;5.60;99.90
5631;DHT22;2837;50.990;7.124;2023-02-10T09:36:30;5.60;99.90
5631;DHT22;2837;50.990;7.124;2023-02-10T09:38:56;5.60;99.90
5631;DHT22;2837;50.990;7.124;2023-02-10T09:44:33;5.60;99.90
5631;DHT22;2837;50.990;7.124;2023-02-10T09:47:13;5.70;99.90
5631;DHT22;2837;50.990;7.124;2023-02-10T09:50:03;5.70;99.90
5631;DHT22;2837;50.990;7.124;2023-02-10T09:52:46;5.80;99.90
5631;DHT22;2837;50.990;7.124;2023-02-10T09:55:23;5.90;99.90
5631;DHT22;2837;50.990;7.124;2023-02-10T09:57:56;5.90;99.90
5631;DHT22;2837;50.990;7.124;2023-02-10T10:00:31;6.00;99.90
5631;DHT22;2837;50.990;7.124;2023-02-10T10:02:58;6.00;99.90
5631;DHT22;2837;50.990;7.124;2023-02-10T10:05:33;6.00;99.90
5631;DHT22;2837;50.990;7.124;2023-02-10T10:08:02;5.90;99.90
5631;DHT22;2837;50.990;7.124;2023-02-10T10:10:33;6.00;99.90
5631;DHT22;2837;50.990;7.124;2023-02-10T10:13:23;5.90;99.90
5631;DHT22;2837;50.990;7.124;2023-02-10T10:21:54;6.00;99.90
5631;DHT22;2837;50.990;7.124;2023-02-10T10:27:20;6.30;99.90
5631;DHT22;2837;50.990;7.124;2023-02-10T10:29:54;6.30;99.90
5631;DHT22;2837;50.990;7.124;2023-02-10T10:32:37;6.30;99.90
5631;DHT22;2837;50.990;7.124;2023-02-10T10:35:35;6.30;99.90
5631;DHT22;2837;50.990;7.124;2023-02-10T10:37:57;6.40;99.90
5631;DHT22;2837;50.990;7.124;2023-02-10T10:40:29;6.50;99.90
5631;DHT22;2837;50.990;7.124;2023-02-10T10:42:58;6.50;99.90
5631;DHT22;2837;50.990;7.124;2023-02-10T10:45:29;6.60;99.90
5631;DHT22;2837;50.990;7.124;2023-02-10T10:50:22;6.60;99.90
5631;DHT22;2837;50.990;7.124;2023-02-10T10:52:51;6.50;99.90
5631;DHT22;2837;50.990;7.124;2023-02-10T10:55:37;6.50;99.90
5631;DHT22;2837;50.990;7.124;2023-02-10T10:58:10;6.50;99.90
5631;DHT22;2837;50.990;7.124;2023-02-10T11:00:53;6.40;99.90
5631;DHT22;2837;50.990;7.124;2023-02-10T11:03:19;6.40;99.90
5631;DHT22;2837;50.990;7.124;2023-02-10T11:06:01;6.50;99.90
5631;DHT22;2837;50.990;7.124;2023-02-10T11:08:35;6.50;99.90
5631;DHT22;2837;50.990;7.124;2023-02-10T11:11:04;6.60;99.90
5631;DHT22;2837;50.990;7.124;2023-02-10T11:13:31;6.60;99.90
5631;DHT22;2837;50.990;7.124;2023-02-10T11:18:29;6.60;99.90
5631;DHT22;2837;50.990;7.124;2023-02-10T11:21:01;6.70;99.90
5631;DHT22;2837;50.990;7.124;2023-02-10T11:23:28;6.60;99.90
5631;DHT22;2837;50.990;7.124;2023-02-10T11:26:02;6.70;99.90
5631;DHT22;2837;50.990;7.124;2023-02-10T11:28:29;6.70;99.90
5631;DHT22;2837;50.990;7.124;2023-02-10T11:31:02;6.70;99.90
5631;DHT22;2837;50.990;7.124;2023-02-10T11:33:33;6.80;99.90
5631;DHT22;2837;50.990;7.124;2023-02-10T11:38:31;6.80;99.90
5631;DHT22;2837;50.990;7.124;2023-02-10T11:41:10;6.80;99.90
5631;DHT22;2837;50.990;7.124;2023-02-10T11:43:41;6.90;99.90
5631;DHT22;2837;50.990;7.124;2023-02-10T11:46:16;6.90;99.90
5631;DHT22;2837;50.990;7.124;2023-02-10T11:48:55;7.00;99.90
5631;DHT22;2837;50.990;7.124;2023-02-10T11:51:21;7.00;99.90
5631;DHT22;2837;50.990;7.124;2023-02-10T11:53:48;6.90;99.90
5631;DHT22;2837;50.990;7.124;2023-02-10T11:59:02;7.00;99.90
5631;DHT22;2837;50.990;7.124;2023-02-10T12:01:53;7.10;99.90
5631;DHT22;2837;50.990;7.124;2023-02-10T12:04:49;7.20;99.90
5631;DHT22;2837;50.990;7.124;2023-02-10T12:07:40;7.30;99.90
5631;DHT22;2837;50.990;7.124;2023-02-10T12:22:00;7.50;99.90
5631;DHT22;2837;50.990;7.124;2023-02-10T12:27:27;7.50;99.90
5631;DHT22;2837;50.990;7.124;2023-02-10T12:41:20;7.50;99.90
5631;DHT22;2837;50.990;7.124;2023-02-10T12:54:37;7.40;99.90
5631;DHT22;2837;50.990;7.124;2023-02-10T13:00:12;7.50;99.90
5631;DHT22;2837;50.990;7.124;2023-02-10T13:02:44;7.60;99.90
5631;DHT22;2837;50.990;7.124;2023-02-10T13:05:18;7.60;99.90
5631;DHT22;2837;50.990;7.124;2023-02-10T13:07:54;7.70;99.90
5631;DHT22;2837;50.990;7.124;2023-02-10T13:10:51;7.70;99.90
5631;DHT22;2837;50.990;7.124;2023-02-10T13:13:30;7.70;99.90
5631;DHT22;2837;50.990;7.124;2023-02-10T13:16:00;7.70;99.90
5631;DHT22;2837;50.990;7.124;2023-02-10T13:18:31;7.60;99.90
5631;DHT22;2837;50.990;7.124;2023-02-10T13:21:19;7.70;99.90
5631;DHT22;2837;50.990;7.124;2023-02-10T13:24:00;7.60;99.90
5631;DHT22;2837;50.990;7.124;2023-02-10T13:29:48;7.70;99.90
5631;DHT22;2837;50.990;7.124;2023-02-10T13:35:21;7.90;99.90
5631;DHT22;2837;50.990;7.124;2023-02-10T13:38:08;8.00;99.90
5631;DHT22;2837;50.990;7.124;2023-02-10T13:40:55;8.10;99.90
5631;DHT22;2837;50.990;7.124;2023-02-10T13:43:45;8.10;99.90
5631;DHT22;2837;50.990;7.124;2023-02-10T13:46:23;8.20;99.90
5631;DHT22;2837;50.990;7.124;2023-02-10T13:48:57;8.20;99.90
5631;DHT22;2837;50.990;7.124;2023-02-10T13:51:37;8.30;99.90
5631;DHT22;2837;50.990;7.124;2023-02-10T13:54:04;8.30;99.90
5631;DHT22;2837;50.990;7.124;2023-02-10T13:56:32;8.30;99.90
5631;DHT22;2837;50.990;7.124;2023-02-10T14:03:57;8.40;99.90
5631;DHT22;2837;50.990;7.124;2023-02-10T14:06:36;8.30;99.90
5631;DHT22;2837;50.990;7.124;2023-02-10T14:11:50;8.40;99.90
5631;DHT22;2837;50.990;7.124;2023-02-10T14:16:46;8.30;99.90
5631;DHT22;2837;50.990;7.124;2023-02-10T14:19:28;8.40;99.90
5631;DHT22;2837;50.990;7.124;2023-02-10T14:21:55;8.30;99.90
5631;DHT22;2837;50.990;7.124;2023-02-10T14:24:27;8.30;99.90
5631;DHT22;2837;50.990;7.124;2023-02-10T14:26:56;8.20;99.90
5631;DHT22;2837;50.990;7.124;2023-02-10T14:29:23;8.20;99.90
5631;DHT22;2837;50.990;7.124;2023-02-10T14:32:01;8.10;99.90
5631;DHT22;2837;50.990;7.124;2023-02-10T14:34:34;8.20;99.90
5631;DHT22;2837;50.990;7.124;2023-02-10T14:37:23;8.20;99.90
5631;DHT22;2837;50.990;7.124;2023-02-10T14:42:20;8.20;99.90
5631;DHT22;2837;50.990;7.124;2023-02-10T14:44:52;8.10;99.90
5631;DHT22;2837;50.990;7.124;2023-02-10T14:47:21;8.10;99.90
5631;DHT22;2837;50.990;7.124;2023-02-10T14:49:52;8.10;99.90
5631;DHT22;2837;50.990;7.124;2023-02-10T14:52:33;8.10;99.90
5631;DHT22;2837;50.990;7.124;2023-02-10T14:54:59;8.10;99.90
5631;DHT22;2837;50.990;7.124;2023-02-10T14:57:26;8.20;99.90
5631;DHT22;2837;50.990;7.124;2023-02-10T14:59:57;8.20;99.90
5631;DHT22;2837;50.990;7.124;2023-02-10T15:02:25;8.20;99.90
5631;DHT22;2837;50.990;7.124;2023-02-10T15:04:54;8.20;99.90
5631;DHT22;2837;50.990;7.124;2023-02-10T15:07:25;8.30;99.90
5631;DHT22;2837;50.990;7.124;2023-02-10T15:09:51;8.30;99.90
5631;DHT22;2837;50.990;7.124;2023-02-10T15:12:19;8.40;99.90
5631;DHT22;2837;50.990;7.124;2023-02-10T15:15:17;8.30;99.90
5631;DHT22;2837;50.990;7.124;2023-02-10T15:17:46;8.30;99.90
5631;DHT22;2837;50.990;7.124;2023-02-10T15:22:41;8.30;99.90
5631;DHT22;2837;50.990;7.124;2023-02-10T15:33:19;8.20;99.90
5631;DHT22;2837;50.990;7.124;2023-02-10T15:36:09;8.10;99.90
5631;DHT22;2837;50.990;7.124;2023-02-10T15:38:58;8.10;99.90
5631;DHT22;2837;50.990;7.124;2023-02-10T15:46:51;8.00;99.90
5631;DHT22;2837;50.990;7.124;2023-02-10T15:49:19;8.00;99.90
5631;DHT22;2837;50.990;7.124;2023-02-10T15:51:55;8.10;99.90
5631;DHT22;2837;50.990;7.124;2023-02-10T15:54:24;8.00;99.90
5631;DHT22;2837;50.990;7.124;2023-02-10T15:57:00;8.10;99.90
5631;DHT22;2837;50.990;7.124;2023-02-10T15:59:26;8.00;99.90
5631;DHT22;2837;50.990;7.124;2023-02-10T16:02:01;8.10;99.90
5631;DHT22;2837;50.990;7.124;2023-02-10T16:04:27;8.00;99.90
5631;DHT22;2837;50.990;7.124;2023-02-10T16:06:55;8.00;99.90
5631;DHT22;2837;50.990;7.124;2023-02-10T16:09:20;8.00;99.90
5631;DHT22;2837;50.990;7.124;2023-02-10T16:11:46;8.10;99.90
5631;DHT22;2837;50.990;7.124;2023-02-10T16:14:12;8.10;99.90
5631;DHT22;2837;50.990;7.124;2023-02-10T16:16:44;8.10;99.90
5631;DHT22;2837;50.990;7.124;2023-02-10T16:19:12;8.00;99.90
5631;DHT22;2837;50.990;7.124;2023-02-10T16:21:38;8.00;99.90
5631;DHT22;2837;50.990;7.124;2023-02-10T16:24:04;7.80;99.90
5631;DHT22;2837;50.990;7.124;2023-02-10T16:26:30;7.80;99.90
5631;DHT22;2837;50.990;7.124;2023-02-10T16:28:55;7.70;99.90
5631;DHT22;2837;50.990;7.124;2023-02-10T16:31:22;7.70;99.90
5631;DHT22;2837;50.990;7.124;2023-02-10T16:33:48;7.60;99.90
5631;DHT22;2837;50.990;7.124;2023-02-10T16:36:15;7.50;99.90
5631;DHT22;2837;50.990;7.124;2023-02-10T16:38:43;7.50;99.90
5631;DHT22;2837;50.990;7.124;2023-02-10T16:41:09;7.40;99.90
5631;DHT22;2837;50.990;7.124;2023-02-10T16:43:35;7.30;99.90
5631;DHT22;2837;50.990;7.124;2023-02-10T16:46:01;7.30;99.90
5631;DHT22;2837;50.990;7.124;2023-02-10T16:48:27;7.30;99.90
5631;DHT22;2837;50.990;7.124;2023-02-10T16:50:53;7.20;99.90
5631;DHT22;2837;50.990;7.124;2023-02-10T16:53:19;7.20;99.90
5631;DHT22;2837;50.990;7.124;2023-02-10T16:55:44;7.10;99.90
5631;DHT22;2837;50.990;7.124;2023-02-10T16:58:14;7.00;99.90
5631;DHT22;2837;50.990;7.124;2023-02-10T17:00:40;6.90;99.90
5631;DHT22;2837;50.990;7.124;2023-02-10T17:03:06;6.90;99.90
5631;DHT22;2837;50.990;7.124;2023-02-10T17:05:31;6.80;99.90
5631;DHT22;2837;50.990;7.124;2023-02-10T17:07:58;6.80;99.90
5631;DHT22;2837;50.990;7.124;2023-02-10T17:10:26;6.70;99.90
5631;DHT22;2837;50.990;7.124;2023-02-10T17:12:52;6.70;99.90
5631;DHT22;2837;50.990;7.124;2023-02-10T17:15:18;6.60;99.90
5631;DHT22;2837;50.990;7.124;2023-02-10T17:17:44;6.60;99.90
5631;DHT22;2837;50.990;7.124;2023-02-10T17:20:20;6.60;99.90
5631;DHT22;2837;50.990;7.124;2023-02-10T17:22:46;6.50;99.90
5631;DHT22;2837;50.990;7.124;2023-02-10T17:25:12;6.50;99.90
5631;DHT22;2837;50.990;7.124;2023-02-10T17:27:38;6.40;99.90
5631;DHT22;2837;50.990;7.124;2023-02-10T17:30:04;6.40;99.90
5631;DHT22;2837;50.990;7.124;2023-02-10T17:32:29;6.40;99.90
5631;DHT22;2837;50.990;7.124;2023-02-10T17:34:55;6.40;99.90
5631;DHT22;2837;50.990;7.124;2023-02-10T17:37:21;6.40;99.90
5631;DHT22;2837;50.990;7.124;2023-02-10T17:39:46;6.40;99.90
5631;DHT22;2837;50.990;7.124;2023-02-10T17:42:15;6.40;99.90
5631;DHT22;2837;50.990;7.124;2023-02-10T17:44:43;6.40;99.90
5631;DHT22;2837;50.990;7.124;2023-02-10T17:47:09;6.30;99.90
5631;DHT22;2837;50.990;7.124;2023-02-10T17:49:34;6.30;99.90
5631;DHT22;2837;50.990;7.124;2023-02-10T17:52:01;6.30;99.90
5631;DHT22;2837;50.990;7.124;2023-02-10T17:54:27;6.20;99.90
5631;DHT22;2837;50.990;7.124;2023-02-10T17:56:54;6.10;99.90
5631;DHT22;2837;50.990;7.124;2023-02-10T17:59:19;6.00;99.90
5631;DHT22;2837;50.990;7.124;2023-02-10T18:01:45;6.00;99.90
5631;DHT22;2837;50.990;7.124;2023-02-10T18:04:11;6.00;99.90
5631;DHT22;2837;50.990;7.124;2023-02-10T18:06:40;6.00;99.90
5631;DHT22;2837;50.990;7.124;2023-02-10T18:09:06;6.00;99.90
5631;DHT22;2837;50.990;7.124;2023-02-10T18:11:31;6.00;99.90
5631;DHT22;2837;50.990;7.124;2023-02-10T18:13:58;5.90;99.90
5631;DHT22;2837;50.990;7.124;2023-02-10T18:16:24;5.90;99.90
5631;DHT22;2837;50.990;7.124;2023-02-10T18:18:50;5.90;99.90
5631;DHT22;2837;50.990;7.124;2023-02-10T18:21:20;5.90;99.90
5631;DHT22;2837;50.990;7.124;2023-02-10T18:23:46;6.00;99.90
5631;DHT22;2837;50.990;7.124;2023-02-10T18:26:13;6.00;99.90
5631;DHT22;2837;50.990;7.124;2023-02-10T18:28:39;6.00;99.90
5631;DHT22;2837;50.990;7.124;2023-02-10T18:31:05;6.00;99.90
5631;DHT22;2837;50.990;7.124;2023-02-10T18:33:31;6.00;99.90
5631;DHT22;2837;50.990;7.124;2023-02-10T18:35:57;6.10;99.90
5631;DHT22;2837;50.990;7.124;2023-02-10T18:38:23;6.10;99.90
5631;DHT22;2837;50.990;7.124;2023-02-10T18:40:49;6.10;99.90
5631;DHT22;2837;50.990;7.124;2023-02-10T18:43:21;6.10;99.90
5631;DHT22;2837;50.990;7.124;2023-02-10T18:45:50;6.10;99.90
5631;DHT22;2837;50.990;7.124;2023-02-10T18:48:17;6.10;99.90
5631;DHT22;2837;50.990;7.124;2023-02-10T18:50:44;6.10;99.90
5631;DHT22;2837;50.990;7.124;2023-02-10T18:53:10;6.20;99.90
5631;DHT22;2837;50.990;7.124;2023-02-10T18:55:36;6.20;99.90
5631;DHT22;2837;50.990;7.124;2023-02-10T18:58:02;6.30;99.90
5631;DHT22;2837;50.990;7.124;2023-02-10T19:00:29;6.40;99.90
5631;DHT22;2837;50.990;7.124;2023-02-10T19:02:55;6.50;99.90
5631;DHT22;2837;50.990;7.124;2023-02-10T19:05:21;6.50;99.90
5631;DHT22;2837;50.990;7.124;2023-02-10T19:07:46;6.70;99.90
5631;DHT22;2837;50.990;7.124;2023-02-10T19:10:12;6.70;99.90
5631;DHT22;2837;50.990;7.124;2023-02-10T19:12:38;6.80;99.90
5631;DHT22;2837;50.990;7.124;2023-02-10T19:15:03;6.80;99.90
5631;DHT22;2837;50.990;7.124;2023-02-10T19:17:29;6.90;99.90
5631;DHT22;2837;50.990;7.124;2023-02-10T19:19:55;6.80;99.90
5631;DHT22;2837;50.990;7.124;2023-02-10T19:22:20;6.90;99.90
5631;DHT22;2837;50.990;7.124;2023-02-10T19:24:46;6.90;99.90
5631;DHT22;2837;50.990;7.124;2023-02-10T19:27:11;7.00;99.90
5631;DHT22;2837;50.990;7.124;2023-02-10T19:29:38;6.90;99.90
5631;DHT22;2837;50.990;7.124;2023-02-10T19:32:03;6.90;99.90
5631;DHT22;2837;50.990;7.124;2023-02-10T19:34:29;6.90;99.90
5631;DHT22;2837;50.990;7.124;2023-02-10T19:36:55;6.90;99.90
5631;DHT22;2837;50.990;7.124;2023-02-10T19:39:20;6.90;99.90
5631;DHT22;2837;50.990;7.124;2023-02-10T19:41:46;6.90;99.90
5631;DHT22;2837;50.990;7.124;2023-02-10T19:44:17;6.90;99.90
5631;DHT22;2837;50.990;7.124;2023-02-10T19:46:43;6.90;99.90
5631;DHT22;2837;50.990;7.124;2023-02-10T19:49:09;6.90;99.90
5631;DHT22;2837;50.990;7.124;2023-02-10T19:51:35;6.90;99.90
5631;DHT22;2837;50.990;7.124;2023-02-10T19:54:00;6.80;99.90
5631;DHT22;2837;50.990;7.124;2023-02-10T19:56:26;6.90;99.90
5631;DHT22;2837;50.990;7.124;2023-02-10T19:58:55;7.00;99.90
5631;DHT22;2837;50.990;7.124;2023-02-10T20:01:20;7.00;99.90
5631;DHT22;2837;50.990;7.124;2023-02-10T20:03:49;7.00;99.90
5631;DHT22;2837;50.990;7.124;2023-02-10T20:06:18;7.10;99.90
5631;DHT22;2837;50.990;7.124;2023-02-10T20:08:44;7.10;99.90
5631;DHT22;2837;50.990;7.124;2023-02-10T20:11:12;7.10;99.90
5631;DHT22;2837;50.990;7.124;2023-02-10T20:13:38;7.10;99.90
5631;DHT22;2837;50.990;7.124;2023-02-10T20:16:04;7.10;99.90
5631;DHT22;2837;50.990;7.124;2023-02-10T20:18:30;7.10;99.90
5631;DHT22;2837;50.990;7.124;2023-02-10T20:20:57;7.10;99.90
5631;DHT22;2837;50.990;7.124;2023-02-10T20:23:28;7.20;99.90
5631;DHT22;2837;50.990;7.124;2023-02-10T20:25:55;7.10;99.90
5631;DHT22;2837;50.990;7.124;2023-02-10T20:28:21;7.10;99.90
5631;DHT22;2837;50.990;7.124;2023-02-10T20:30:46;7.10;99.90
5631;DHT22;2837;50.990;7.124;2023-02-10T20:33:12;7.20;99.90
5631;DHT22;2837;50.990;7.124;2023-02-10T20:35:39;7.20;99.90
5631;DHT22;2837;50.990;7.124;2023-02-10T20:38:05;7.20;99.90
5631;DHT22;2837;50.990;7.124;2023-02-10T20:40:31;7.20;99.90
5631;DHT22;2837;50.990;7.124;2023-02-10T20:42:56;7.20;99.90
5631;DHT22;2837;50.990;7.124;2023-02-10T20:45:22;7.20;99.90
5631;DHT22;2837;50.990;7.124;2023-02-10T20:47:48;7.10;99.90
5631;DHT22;2837;50.990;7.124;2023-02-10T20:50:14;7.10;99.90
5631;DHT22;2837;50.990;7.124;2023-02-10T20:52:39;7.10;99.90
5631;DHT22;2837;50.990;7.124;2023-02-10T20:55:08;7.10;99.90
5631;DHT22;2837;50.990;7.124;2023-02-10T20:57:34;7.00;99.90
5631;DHT22;2837;50.990;7.124;2023-02-10T20:59:59;7.10;99.90
5631;DHT22;2837;50.990;7.124;2023-02-10T21:02:25;7.10;99.90
5631;DHT22;2837;50.990;7.124;2023-02-10T21:04:50;7.10;99.90
5631;DHT22;2837;50.990;7.124;2023-02-10T21:07:16;7.10;99.90
5631;DHT22;2837;50.990;7.124;2023-02-10T21:09:42;7.10;99.90
5631;DHT22;2837;50.990;7.124;2023-02-10T21:12:11;7.10;99.90
5631;DHT22;2837;50.990;7.124;2023-02-10T21:14:37;7.00;99.90
5631;DHT22;2837;50.990;7.124;2023-02-10T21:17:03;7.00;99.90
5631;DHT22;2837;50.990;7.124;2023-02-10T21:19:28;7.00;99.90
5631;DHT22;2837;50.990;7.124;2023-02-10T21:21:54;7.00;99.90
5631;DHT22;2837;50.990;7.124;2023-02-10T21:24:20;7.00;99.90
5631;DHT22;2837;50.990;7.124;2023-02-10T21:26:47;7.00;99.90
5631;DHT22;2837;50.990;7.124;2023-02-10T21:29:12;7.00;99.90
5631;DHT22;2837;50.990;7.124;2023-02-10T21:31:38;7.00;99.90
5631;DHT22;2837;50.990;7.124;2023-02-10T21:34:05;7.10;99.90
5631;DHT22;2837;50.990;7.124;2023-02-10T21:36:32;7.10;99.90
5631;DHT22;2837;50.990;7.124;2023-02-10T21:39:00;7.00;99.90
5631;DHT22;2837;50.990;7.124;2023-02-10T21:41:26;7.00;99.90
5631;DHT22;2837;50.990;7.124;2023-02-10T21:46:48;6.90;99.90
5631;DHT22;2837;50.990;7.124;2023-02-10T21:49:15;6.90;99.90
5631;DHT22;2837;50.990;7.124;2023-02-10T21:51:41;7.10;99.90
5631;DHT22;2837;50.990;7.124;2023-02-10T21:54:07;7.00;99.90
5631;DHT22;2837;50.990;7.124;2023-02-10T21:56:33;7.10;99.90
5631;DHT22;2837;50.990;7.124;2023-02-10T21:58:59;7.00;99.90
